sensor_id;sensor_type;location;lat;lon;timestamp;P1;durP1;ratioP1;P2;durP2;ratioP2
65130;SDS011;51709;54.912;8.316;2022-12-07T00:02:50;10.60;;;3.60;;
65130;SDS011;51709;54.912;8.316;2022-12-07T00:08:10;7.07;;;3.00;;
65130;SDS011;51709;54.912;8.316;2022-12-07T00:13:31;11.45;;;3.45;;
65130;SDS011;51709;54.912;8.316;2022-12-07T00:18:53;16.73;;;4.82;;
65130;SDS011;51709;54.912;8.316;2022-12-07T00:24:14;5.82;;;3.53;;
65130;SDS011;51709;54.912;8.316;2022-12-07T00:29:34;9.23;;;3.63;;
65130;SDS011;51709;54.912;8.316;2022-12-07T00:34:57;7.15;;;3.28;;
65130;SDS011;51709;54.912;8.316;2022-12-07T00:40:19;5.38;;;3.47;;
65130;SDS011;51709;54.912;8.316;2022-12-07T00:45:40;14.75;;;3.30;;
65130;SDS011;51709;54.912;8.316;2022-12-07T00:51:00;9.15;;;3.80;;
65130;SDS011;51709;54.912;8.316;2022-12-07T00:56:23;9.35;;;4.03;;
65130;SDS011;51709;54.912;8.316;2022-12-07T01:01:45;18.00;;;4.43;;
65130;SDS011;51709;54.912;8.316;2022-12-07T01:07:05;9.00;;;3.08;;
65130;SDS011;51709;54.912;8.316;2022-12-07T01:12:26;6.60;;;3.17;;
65130;SDS011;51709;54.912;8.316;2022-12-07T01:17:47;8.30;;;3.30;;
65130;SDS011;51709;54.912;8.316;2022-12-07T01:23:07;13.80;;;3.30;;
65130;SDS011;51709;54.912;8.316;2022-12-07T01:28:28;8.75;;;3.55;;
65130;SDS011;51709;54.912;8.316;2022-12-07T01:33:50;10.18;;;3.58;;
65130;SDS011;51709;54.912;8.316;2022-12-07T01:39:12;4.22;;;2.88;;
65130;SDS011;51709;54.912;8.316;2022-12-07T01:45:15;5.72;;;2.67;;
65130;SDS011;51709;54.912;8.316;2022-12-07T01:50:32;5.85;;;2.22;;
65130;SDS011;51709;54.912;8.316;2022-12-07T01:55:54;4.18;;;2.03;;
65130;SDS011;51709;54.912;8.316;2022-12-07T02:01:17;5.10;;;2.88;;
65130;SDS011;51709;54.912;8.316;2022-12-07T02:06:38;9.60;;;2.65;;
65130;SDS011;51709;54.912;8.316;2022-12-07T02:12:02;11.68;;;2.83;;
65130;SDS011;51709;54.912;8.316;2022-12-07T02:17:32;5.35;;;2.15;;
65130;SDS011;51709;54.912;8.316;2022-12-07T02:23:17;3.08;;;1.60;;
65130;SDS011;51709;54.912;8.316;2022-12-07T02:29:00;2.45;;;1.05;;
65130;SDS011;51709;54.912;8.316;2022-12-07T02:34:41;1.58;;;1.20;;
65130;SDS011;51709;54.912;8.316;2022-12-07T02:45:55;5.22;;;1.42;;
65130;SDS011;51709;54.912;8.316;2022-12-07T02:51:21;6.63;;;1.88;;
65130;SDS011;51709;54.912;8.316;2022-12-07T03:19:10;7.05;;;1.52;;
65130;SDS011;51709;54.912;8.316;2022-12-07T03:24:37;13.23;;;1.90;;
65130;SDS011;51709;54.912;8.316;2022-12-07T03:30:06;3.10;;;1.10;;
65130;SDS011;51709;54.912;8.316;2022-12-07T03:35:32;10.88;;;1.42;;
65130;SDS011;51709;54.912;8.316;2022-12-07T03:41:08;5.25;;;1.60;;
65130;SDS011;51709;54.912;8.316;2022-12-07T03:52:25;8.23;;;1.23;;
65130;SDS011;51709;54.912;8.316;2022-12-07T03:57:53;7.50;;;1.67;;
65130;SDS011;51709;54.912;8.316;2022-12-07T04:03:17;12.50;;;1.67;;
65130;SDS011;51709;54.912;8.316;2022-12-07T04:08:37;17.10;;;2.28;;
65130;SDS011;51709;54.912;8.316;2022-12-07T04:13:58;9.50;;;1.60;;
65130;SDS011;51709;54.912;8.316;2022-12-07T04:19:37;14.23;;;1.73;;
65130;SDS011;51709;54.912;8.316;2022-12-07T04:24:57;10.45;;;1.55;;
65130;SDS011;51709;54.912;8.316;2022-12-07T04:30:18;7.28;;;1.15;;
65130;SDS011;51709;54.912;8.316;2022-12-07T04:35:38;8.40;;;1.20;;
65130;SDS011;51709;54.912;8.316;2022-12-07T04:41:04;16.30;;;2.40;;
65130;SDS011;51709;54.912;8.316;2022-12-07T04:46:26;6.53;;;1.77;;
65130;SDS011;51709;54.912;8.316;2022-12-07T04:51:48;6.25;;;1.58;;
65130;SDS011;51709;54.912;8.316;2022-12-07T04:57:10;14.50;;;1.63;;
65130;SDS011;51709;54.912;8.316;2022-12-07T05:02:31;9.68;;;1.27;;
65130;SDS011;51709;54.912;8.316;2022-12-07T05:07:51;10.27;;;1.95;;
65130;SDS011;51709;54.912;8.316;2022-12-07T05:13:12;11.63;;;1.75;;
65130;SDS011;51709;54.912;8.316;2022-12-07T05:18:32;14.20;;;1.70;;
65130;SDS011;51709;54.912;8.316;2022-12-07T05:23:52;27.77;;;2.47;;
65130;SDS011;51709;54.912;8.316;2022-12-07T05:29:14;4.47;;;1.40;;
65130;SDS011;51709;54.912;8.316;2022-12-07T05:34:35;14.70;;;1.88;;
65130;SDS011;51709;54.912;8.316;2022-12-07T05:39:56;11.75;;;1.55;;
65130;SDS011;51709;54.912;8.316;2022-12-07T05:45:16;11.20;;;2.03;;
65130;SDS011;51709;54.912;8.316;2022-12-07T05:50:37;3.40;;;1.30;;
65130;SDS011;51709;54.912;8.316;2022-12-07T05:55:57;3.72;;;1.35;;
65130;SDS011;51709;54.912;8.316;2022-12-07T06:01:18;8.70;;;1.20;;
65130;SDS011;51709;54.912;8.316;2022-12-07T06:06:39;16.05;;;1.85;;
65130;SDS011;51709;54.912;8.316;2022-12-07T06:12:00;10.35;;;1.50;;
65130;SDS011;51709;54.912;8.316;2022-12-07T06:17:39;15.98;;;2.28;;
65130;SDS011;51709;54.912;8.316;2022-12-07T06:23:00;10.85;;;1.55;;
65130;SDS011;51709;54.912;8.316;2022-12-07T06:28:21;12.23;;;2.55;;
65130;SDS011;51709;54.912;8.316;2022-12-07T06:33:42;11.55;;;2.30;;
65130;SDS011;51709;54.912;8.316;2022-12-07T06:39:03;12.68;;;2.13;;
65130;SDS011;51709;54.912;8.316;2022-12-07T06:44:25;16.27;;;2.50;;
65130;SDS011;51709;54.912;8.316;2022-12-07T06:49:45;9.43;;;1.63;;
65130;SDS011;51709;54.912;8.316;2022-12-07T06:55:06;14.25;;;2.03;;
65130;SDS011;51709;54.912;8.316;2022-12-07T07:00:27;12.38;;;2.00;;
65130;SDS011;51709;54.912;8.316;2022-12-07T07:05:48;13.63;;;2.50;;
65130;SDS011;51709;54.912;8.316;2022-12-07T07:11:09;10.48;;;2.20;;
65130;SDS011;51709;54.912;8.316;2022-12-07T07:16:30;9.50;;;2.00;;
65130;SDS011;51709;54.912;8.316;2022-12-07T07:21:51;7.03;;;1.67;;
65130;SDS011;51709;54.912;8.316;2022-12-07T07:27:11;8.52;;;1.40;;
65130;SDS011;51709;54.912;8.316;2022-12-07T07:32:32;9.73;;;1.42;;
65130;SDS011;51709;54.912;8.316;2022-12-07T07:37:53;4.68;;;1.52;;
65130;SDS011;51709;54.912;8.316;2022-12-07T07:43:13;4.13;;;1.55;;
65130;SDS011;51709;54.912;8.316;2022-12-07T07:48:34;8.05;;;1.65;;
65130;SDS011;51709;54.912;8.316;2022-12-07T07:53:55;3.55;;;1.02;;
65130;SDS011;51709;54.912;8.316;2022-12-07T07:59:16;12.40;;;1.90;;
65130;SDS011;51709;54.912;8.316;2022-12-07T08:04:36;17.13;;;2.20;;
65130;SDS011;51709;54.912;8.316;2022-12-07T08:09:57;4.82;;;1.13;;
65130;SDS011;51709;54.912;8.316;2022-12-07T08:15:17;3.45;;;0.77;;
65130;SDS011;51709;54.912;8.316;2022-12-07T08:20:39;9.20;;;1.13;;
65130;SDS011;51709;54.912;8.316;2022-12-07T08:26:02;4.05;;;1.17;;
65130;SDS011;51709;54.912;8.316;2022-12-07T08:31:24;7.88;;;1.45;;
65130;SDS011;51709;54.912;8.316;2022-12-07T08:36:44;7.30;;;1.77;;
65130;SDS011;51709;54.912;8.316;2022-12-07T08:42:05;7.47;;;1.52;;
65130;SDS011;51709;54.912;8.316;2022-12-07T08:47:25;9.48;;;1.02;;
65130;SDS011;51709;54.912;8.316;2022-12-07T08:52:56;9.65;;;1.23;;
65130;SDS011;51709;54.912;8.316;2022-12-07T08:58:19;6.00;;;1.38;;
65130;SDS011;51709;54.912;8.316;2022-12-07T09:03:40;7.80;;;1.52;;
65130;SDS011;51709;54.912;8.316;2022-12-07T09:09:00;10.20;;;1.10;;
65130;SDS011;51709;54.912;8.316;2022-12-07T09:14:22;5.85;;;1.55;;
65130;SDS011;51709;54.912;8.316;2022-12-07T09:19:42;5.13;;;1.23;;
65130;SDS011;51709;54.912;8.316;2022-12-07T09:25:03;4.80;;;1.27;;
65130;SDS011;51709;54.912;8.316;2022-12-07T09:30:26;5.55;;;0.93;;
65130;SDS011;51709;54.912;8.316;2022-12-07T09:35:48;6.97;;;1.00;;
65130;SDS011;51709;54.912;8.316;2022-12-07T09:41:10;5.43;;;1.17;;
65130;SDS011;51709;54.912;8.316;2022-12-07T09:46:33;2.17;;;0.95;;
65130;SDS011;51709;54.912;8.316;2022-12-07T09:51:59;3.67;;;0.82;;
65130;SDS011;51709;54.912;8.316;2022-12-07T10:02:58;1.58;;;0.63;;
65130;SDS011;51709;54.912;8.316;2022-12-07T10:08:20;2.70;;;1.05;;
65130;SDS011;51709;54.912;8.316;2022-12-07T10:13:48;8.20;;;1.38;;
65130;SDS011;51709;54.912;8.316;2022-12-07T10:24:51;4.97;;;1.00;;
65130;SDS011;51709;54.912;8.316;2022-12-07T10:30:12;8.00;;;1.52;;
65130;SDS011;51709;54.912;8.316;2022-12-07T10:35:35;14.43;;;2.47;;
65130;SDS011;51709;54.912;8.316;2022-12-07T10:41:06;4.68;;;0.73;;
65130;SDS011;51709;54.912;8.316;2022-12-07T10:46:40;1.92;;;1.38;;
65130;SDS011;51709;54.912;8.316;2022-12-07T10:52:18;4.85;;;0.95;;
65130;SDS011;51709;54.912;8.316;2022-12-07T11:03:21;3.17;;;0.85;;
65130;SDS011;51709;54.912;8.316;2022-12-07T11:09:00;1.58;;;0.93;;
65130;SDS011;51709;54.912;8.316;2022-12-07T11:14:37;16.55;;;1.38;;
65130;SDS011;51709;54.912;8.316;2022-12-07T11:20:26;11.05;;;1.20;;
65130;SDS011;51709;54.912;8.316;2022-12-07T11:26:20;1.95;;;1.10;;
65130;SDS011;51709;54.912;8.316;2022-12-07T11:32:07;1.20;;;0.77;;
65130;SDS011;51709;54.912;8.316;2022-12-07T11:37:51;11.43;;;1.23;;
65130;SDS011;51709;54.912;8.316;2022-12-07T11:43:22;4.15;;;1.23;;
65130;SDS011;51709;54.912;8.316;2022-12-07T11:48:50;3.40;;;0.80;;
65130;SDS011;51709;54.912;8.316;2022-12-07T11:54:19;4.35;;;0.82;;
65130;SDS011;51709;54.912;8.316;2022-12-07T11:59:51;20.75;;;2.67;;
65130;SDS011;51709;54.912;8.316;2022-12-07T12:05:18;4.50;;;1.60;;
65130;SDS011;51709;54.912;8.316;2022-12-07T12:22:04;4.88;;;1.38;;
65130;SDS011;51709;54.912;8.316;2022-12-07T12:27:37;7.38;;;1.30;;
65130;SDS011;51709;54.912;8.316;2022-12-07T12:33:04;3.60;;;0.77;;
65130;SDS011;51709;54.912;8.316;2022-12-07T12:38:33;9.80;;;1.10;;
65130;SDS011;51709;54.912;8.316;2022-12-07T12:49:36;7.05;;;1.10;;
65130;SDS011;51709;54.912;8.316;2022-12-07T13:00:31;9.93;;;1.38;;
65130;SDS011;51709;54.912;8.316;2022-12-07T13:06:16;10.25;;;1.35;;
65130;SDS011;51709;54.912;8.316;2022-12-07T13:11:47;5.07;;;1.33;;
65130;SDS011;51709;54.912;8.316;2022-12-07T13:17:11;4.80;;;1.20;;
65130;SDS011;51709;54.912;8.316;2022-12-07T13:22:52;8.52;;;1.17;;
65130;SDS011;51709;54.912;8.316;2022-12-07T13:28:18;6.80;;;1.15;;
65130;SDS011;51709;54.912;8.316;2022-12-07T13:33:45;4.20;;;0.90;;
65130;SDS011;51709;54.912;8.316;2022-12-07T13:44:34;7.70;;;1.40;;
65130;SDS011;51709;54.912;8.316;2022-12-07T13:50:02;5.97;;;0.80;;
65130;SDS011;51709;54.912;8.316;2022-12-07T13:55:45;7.65;;;0.68;;
65130;SDS011;51709;54.912;8.316;2022-12-07T14:01:13;4.35;;;2.47;;
65130;SDS011;51709;54.912;8.316;2022-12-07T14:06:34;5.72;;;0.90;;
65130;SDS011;51709;54.912;8.316;2022-12-07T14:11:56;7.90;;;1.13;;
65130;SDS011;51709;54.912;8.316;2022-12-07T14:17:18;6.60;;;1.17;;
65130;SDS011;51709;54.912;8.316;2022-12-07T14:22:42;10.98;;;1.13;;
65130;SDS011;51709;54.912;8.316;2022-12-07T14:28:03;2.60;;;1.08;;
65130;SDS011;51709;54.912;8.316;2022-12-07T14:33:23;2.03;;;0.73;;
65130;SDS011;51709;54.912;8.316;2022-12-07T14:38:45;3.80;;;0.70;;
65130;SDS011;51709;54.912;8.316;2022-12-07T14:44:10;7.40;;;0.95;;
65130;SDS011;51709;54.912;8.316;2022-12-07T14:49:52;2.05;;;1.10;;
65130;SDS011;51709;54.912;8.316;2022-12-07T14:55:26;1.75;;;1.13;;
65130;SDS011;51709;54.912;8.316;2022-12-07T15:00:49;0.77;;;0.77;;
65130;SDS011;51709;54.912;8.316;2022-12-07T15:06:10;4.05;;;0.70;;
65130;SDS011;51709;54.912;8.316;2022-12-07T15:11:34;3.78;;;1.02;;
65130;SDS011;51709;54.912;8.316;2022-12-07T15:17:02;8.25;;;1.00;;
65130;SDS011;51709;54.912;8.316;2022-12-07T15:22:42;2.15;;;1.23;;
65130;SDS011;51709;54.912;8.316;2022-12-07T15:28:03;4.22;;;1.35;;
65130;SDS011;51709;54.912;8.316;2022-12-07T15:33:24;9.77;;;1.48;;
65130;SDS011;51709;54.912;8.316;2022-12-07T15:38:45;3.47;;;1.30;;
65130;SDS011;51709;54.912;8.316;2022-12-07T15:44:25;1.23;;;0.82;;
65130;SDS011;51709;54.912;8.316;2022-12-07T15:50:06;2.55;;;0.93;;
65130;SDS011;51709;54.912;8.316;2022-12-07T15:55:30;1.90;;;1.17;;
65130;SDS011;51709;54.912;8.316;2022-12-07T16:00:51;9.57;;;2.28;;
65130;SDS011;51709;54.912;8.316;2022-12-07T16:06:12;6.70;;;2.53;;
65130;SDS011;51709;54.912;8.316;2022-12-07T16:11:35;3.70;;;2.50;;
65130;SDS011;51709;54.912;8.316;2022-12-07T16:16:56;7.38;;;2.50;;
65130;SDS011;51709;54.912;8.316;2022-12-07T16:22:16;4.80;;;2.20;;
65130;SDS011;51709;54.912;8.316;2022-12-07T16:27:37;8.65;;;2.28;;
65130;SDS011;51709;54.912;8.316;2022-12-07T16:32:58;12.82;;;4.53;;
65130;SDS011;51709;54.912;8.316;2022-12-07T16:38:22;8.00;;;4.00;;
65130;SDS011;51709;54.912;8.316;2022-12-07T16:43:42;10.32;;;4.85;;
65130;SDS011;51709;54.912;8.316;2022-12-07T16:49:03;10.88;;;3.40;;
65130;SDS011;51709;54.912;8.316;2022-12-07T16:54:24;11.57;;;4.10;;
65130;SDS011;51709;54.912;8.316;2022-12-07T16:59:45;10.52;;;3.67;;
65130;SDS011;51709;54.912;8.316;2022-12-07T17:05:06;6.47;;;4.00;;
65130;SDS011;51709;54.912;8.316;2022-12-07T17:10:27;7.90;;;4.35;;
65130;SDS011;51709;54.912;8.316;2022-12-07T17:15:54;12.25;;;4.00;;
65130;SDS011;51709;54.912;8.316;2022-12-07T17:21:25;5.40;;;2.28;;
65130;SDS011;51709;54.912;8.316;2022-12-07T17:26:45;11.45;;;2.17;;
65130;SDS011;51709;54.912;8.316;2022-12-07T17:32:07;5.63;;;2.20;;
65130;SDS011;51709;54.912;8.316;2022-12-07T17:37:27;4.93;;;2.45;;
65130;SDS011;51709;54.912;8.316;2022-12-07T17:50:44;5.43;;;1.70;;
65130;SDS011;51709;54.912;8.316;2022-12-07T17:56:25;7.95;;;2.08;;
65130;SDS011;51709;54.912;8.316;2022-12-07T18:01:48;2.30;;;1.77;;
65130;SDS011;51709;54.912;8.316;2022-12-07T18:07:09;2.20;;;1.25;;
65130;SDS011;51709;54.912;8.316;2022-12-07T18:12:30;2.67;;;0.90;;
65130;SDS011;51709;54.912;8.316;2022-12-07T18:17:50;2.45;;;0.90;;
65130;SDS011;51709;54.912;8.316;2022-12-07T18:23:11;3.97;;;2.00;;
65130;SDS011;51709;54.912;8.316;2022-12-07T18:28:31;1.55;;;1.02;;
65130;SDS011;51709;54.912;8.316;2022-12-07T18:33:52;5.43;;;2.03;;
65130;SDS011;51709;54.912;8.316;2022-12-07T18:39:16;1.77;;;0.98;;
65130;SDS011;51709;54.912;8.316;2022-12-07T18:44:38;1.10;;;0.70;;
65130;SDS011;51709;54.912;8.316;2022-12-07T18:49:58;6.80;;;1.67;;
65130;SDS011;51709;54.912;8.316;2022-12-07T18:55:22;1.27;;;0.60;;
65130;SDS011;51709;54.912;8.316;2022-12-07T19:00:42;1.50;;;1.05;;
65130;SDS011;51709;54.912;8.316;2022-12-07T19:06:06;1.88;;;0.77;;
65130;SDS011;51709;54.912;8.316;2022-12-07T19:11:28;1.30;;;0.28;;
65130;SDS011;51709;54.912;8.316;2022-12-07T19:17:10;4.22;;;0.60;;
65130;SDS011;51709;54.912;8.316;2022-12-07T19:22:31;1.25;;;0.80;;
65130;SDS011;51709;54.912;8.316;2022-12-07T19:27:52;0.70;;;0.60;;
65130;SDS011;51709;54.912;8.316;2022-12-07T19:33:13;1.00;;;0.70;;
65130;SDS011;51709;54.912;8.316;2022-12-07T19:38:33;0.77;;;0.77;;
65130;SDS011;51709;54.912;8.316;2022-12-07T19:43:54;3.30;;;1.23;;
65130;SDS011;51709;54.912;8.316;2022-12-07T19:49:15;4.28;;;0.93;;
65130;SDS011;51709;54.912;8.316;2022-12-07T19:54:37;0.82;;;0.80;;
65130;SDS011;51709;54.912;8.316;2022-12-07T19:59:58;1.73;;;1.38;;
65130;SDS011;51709;54.912;8.316;2022-12-07T20:05:19;4.28;;;1.35;;
65130;SDS011;51709;54.912;8.316;2022-12-07T20:10:41;1.52;;;0.98;;
65130;SDS011;51709;54.912;8.316;2022-12-07T20:16:02;6.07;;;1.52;;
65130;SDS011;51709;54.912;8.316;2022-12-07T20:21:38;5.15;;;1.00;;
65130;SDS011;51709;54.912;8.316;2022-12-07T20:26:59;1.30;;;0.40;;
65130;SDS011;51709;54.912;8.316;2022-12-07T20:32:20;0.70;;;0.50;;
65130;SDS011;51709;54.912;8.316;2022-12-07T20:37:40;0.80;;;0.40;;
65130;SDS011;51709;54.912;8.316;2022-12-07T20:43:01;0.55;;;0.55;;
65130;SDS011;51709;54.912;8.316;2022-12-07T20:48:22;2.88;;;1.73;;
65130;SDS011;51709;54.912;8.316;2022-12-07T20:53:43;1.33;;;0.73;;
65130;SDS011;51709;54.912;8.316;2022-12-07T20:59:05;1.30;;;0.38;;
65130;SDS011;51709;54.912;8.316;2022-12-07T21:04:28;0.60;;;0.50;;
65130;SDS011;51709;54.912;8.316;2022-12-07T21:09:50;3.53;;;1.00;;
65130;SDS011;51709;54.912;8.316;2022-12-07T21:15:11;1.77;;;0.90;;
65130;SDS011;51709;54.912;8.316;2022-12-07T21:20:32;1.10;;;0.70;;
65130;SDS011;51709;54.912;8.316;2022-12-07T21:25:53;2.20;;;0.80;;
65130;SDS011;51709;54.912;8.316;2022-12-07T21:31:13;0.70;;;0.30;;
65130;SDS011;51709;54.912;8.316;2022-12-07T21:36:35;3.47;;;0.90;;
65130;SDS011;51709;54.912;8.316;2022-12-07T21:41:56;0.88;;;0.60;;
65130;SDS011;51709;54.912;8.316;2022-12-07T21:47:17;1.50;;;0.75;;
65130;SDS011;51709;54.912;8.316;2022-12-07T21:52:38;0.65;;;0.65;;
65130;SDS011;51709;54.912;8.316;2022-12-07T21:57:59;0.38;;;0.38;;
65130;SDS011;51709;54.912;8.316;2022-12-07T22:03:19;0.50;;;0.50;;
65130;SDS011;51709;54.912;8.316;2022-12-07T22:08:40;0.52;;;0.50;;
65130;SDS011;51709;54.912;8.316;2022-12-07T22:14:02;0.80;;;0.80;;
65130;SDS011;51709;54.912;8.316;2022-12-07T22:19:43;1.27;;;0.95;;
65130;SDS011;51709;54.912;8.316;2022-12-07T22:25:04;2.50;;;1.05;;
65130;SDS011;51709;54.912;8.316;2022-12-07T22:30:25;1.25;;;1.00;;
65130;SDS011;51709;54.912;8.316;2022-12-07T22:35:51;0.90;;;0.70;;
65130;SDS011;51709;54.912;8.316;2022-12-07T22:41:16;0.40;;;0.40;;
65130;SDS011;51709;54.912;8.316;2022-12-07T22:46:42;0.50;;;0.50;;
65130;SDS011;51709;54.912;8.316;2022-12-07T22:52:02;5.97;;;1.92;;
65130;SDS011;51709;54.912;8.316;2022-12-07T22:57:23;1.50;;;0.77;;
65130;SDS011;51709;54.912;8.316;2022-12-07T23:02:44;0.75;;;0.32;;
65130;SDS011;51709;54.912;8.316;2022-12-07T23:08:05;0.47;;;0.47;;
65130;SDS011;51709;54.912;8.316;2022-12-07T23:13:25;0.40;;;0.40;;
65130;SDS011;51709;54.912;8.316;2022-12-07T23:18:52;7.55;;;0.90;;
65130;SDS011;51709;54.912;8.316;2022-12-07T23:24:13;1.30;;;0.57;;
65130;SDS011;51709;54.912;8.316;2022-12-07T23:29:34;0.93;;;0.52;;
65130;SDS011;51709;54.912;8.316;2022-12-07T23:34:55;0.65;;;0.63;;
65130;SDS011;51709;54.912;8.316;2022-12-07T23:40:15;1.20;;;0.60;;
65130;SDS011;51709;54.912;8.316;2022-12-07T23:45:36;0.45;;;0.43;;
65130;SDS011;51709;54.912;8.316;2022-12-07T23:50:57;0.80;;;0.70;;
65130;SDS011;51709;54.912;8.316;2022-12-07T23:56:19;1.33;;;0.80;;
